createdAt,value
2018-09-06T00:00:26.220Z,17.76
2018-09-06T00:01:36.672Z,17.78
2018-09-06T00:02:46.688Z,17.87
2018-09-06T00:03:56.672Z,17.79
2018-09-06T00:05:06.763Z,17.76
2018-09-06T00:06:17.045Z,17.73
2018-09-06T00:07:27.037Z,17.72
2018-09-06T00:08:37.204Z,17.76
2018-09-06T00:09:47.370Z,17.73
2018-09-06T00:10:58.227Z,17.66
2018-09-06T00:12:16.212Z,17.65
2018-09-06T00:13:26.144Z,17.73
2018-09-06T00:14:36.369Z,17.69
2018-09-06T00:15:46.753Z,17.6
2018-09-06T00:16:57.583Z,17.71
2018-09-06T00:18:08.640Z,17.66
2018-09-06T00:19:18.873Z,17.68
2018-09-06T00:20:31.052Z,17.63
2018-09-06T00:21:42.631Z,17.65
2018-09-06T00:22:56.712Z,17.52
2018-09-06T00:24:07.330Z,17.5
2018-09-06T00:25:19.725Z,17.54
2018-09-06T00:26:32.597Z,17.54
2018-09-06T00:27:44.236Z,17.5
2018-09-06T00:29:00.317Z,17.5
2018-09-06T00:30:10.958Z,17.5
2018-09-06T00:31:21.953Z,17.35
2018-09-06T00:32:34.241Z,17.37
2018-09-06T00:33:45.129Z,17.42
2018-09-06T00:34:54.839Z,17.37
2018-09-06T00:36:04.826Z,17.37
2018-09-06T00:37:14.791Z,17.35
2018-09-06T00:38:24.759Z,17.24
2018-09-06T00:39:34.465Z,17.31
2018-09-06T00:40:44.424Z,17.28
2018-09-06T00:41:54.393Z,17.28
2018-09-06T00:43:04.095Z,17.2
2018-09-06T00:44:13.550Z,17.14
2018-09-06T00:45:23.255Z,17.2
2018-09-06T00:46:33.229Z,17.19
2018-09-06T00:47:43.186Z,17.13
2018-09-06T00:48:52.892Z,17.12
2018-09-06T00:50:02.596Z,17.17
2018-09-06T00:51:12.553Z,17.04
2018-09-06T00:52:22.554Z,17.12
2018-09-06T00:53:32.537Z,17.12
2018-09-06T00:54:42.256Z,16.99
2018-09-06T00:55:52.222Z,16.94
2018-09-06T00:57:02.002Z,17.01
2018-09-06T00:58:11.974Z,16.97
2018-09-06T00:59:21.688Z,16.91
2018-09-06T01:00:31.675Z,16.8
2018-09-06T01:01:41.634Z,16.83
2018-09-06T01:02:51.606Z,16.89
2018-09-06T01:04:01.335Z,16.83
2018-09-06T01:05:11.029Z,16.82
2018-09-06T01:06:20.997Z,16.79
2018-09-06T01:07:30.954Z,16.84
2018-09-06T01:08:40.918Z,16.84
2018-09-06T01:09:50.367Z,16.76
2018-09-06T01:11:00.324Z,16.76
2018-09-06T01:12:10.301Z,16.73
2018-09-06T01:13:20.007Z,16.68
2018-09-06T01:14:29.972Z,16.76
2018-09-06T01:15:39.667Z,16.68
2018-09-06T01:16:49.380Z,16.65
2018-09-06T01:17:59.089Z,16.62
2018-09-06T01:19:08.805Z,16.69
2018-09-06T01:20:18.769Z,16.62
2018-09-06T01:21:28.730Z,16.62
2018-09-06T01:22:38.437Z,16.58
2018-09-06T01:23:48.406Z,16.61
2018-09-06T01:24:58.376Z,16.57
2018-09-06T01:26:08.076Z,16.65
2018-09-06T01:27:18.032Z,16.58
2018-09-06T01:28:27.741Z,16.57
2018-09-06T01:29:37.192Z,16.59
2018-09-06T01:30:46.900Z,16.58
2018-09-06T01:31:56.860Z,16.44
2018-09-06T01:33:06.622Z,16.51
2018-09-06T01:34:16.602Z,16.5
2018-09-06T01:35:26.568Z,16.47
2018-09-06T01:36:36.535Z,16.44
2018-09-06T01:37:46.501Z,16.47
2018-09-06T01:38:56.202Z,16.46
2018-09-06T01:40:06.168Z,16.4
2018-09-06T01:41:16.131Z,16.41
2018-09-06T01:42:26.137Z,16.46
2018-09-06T01:43:36.106Z,16.4
2018-09-06T01:44:46.130Z,16.39
2018-09-06T01:45:55.843Z,16.46
2018-09-06T01:47:05.809Z,16.46
2018-09-06T01:48:15.501Z,16.43
2018-09-06T01:49:25.463Z,16.46
2018-09-06T01:50:35.433Z,16.4
2018-09-06T01:51:45.132Z,16.44
2018-09-06T01:52:55.090Z,16.43
2018-09-06T01:54:04.784Z,16.49
2018-09-06T01:55:14.512Z,16.43
2018-09-06T01:56:24.225Z,16.4
2018-09-06T01:57:33.935Z,16.34
2018-09-06T01:58:43.894Z,16.4
2018-09-06T01:59:53.894Z,16.47
2018-09-06T02:01:03.878Z,16.44
2018-09-06T02:02:13.852Z,16.4
2018-09-06T02:03:23.808Z,16.4
2018-09-06T02:04:33.505Z,16.44
2018-09-06T02:05:43.203Z,16.39
2018-09-06T02:06:53.160Z,16.46
2018-09-06T02:08:03.110Z,16.4
2018-09-06T02:09:13.069Z,16.43
2018-09-06T02:10:23.036Z,16.41
2018-09-06T02:11:32.997Z,16.4
2018-09-06T02:12:42.947Z,16.37
2018-09-06T02:13:52.909Z,16.41
2018-09-06T02:15:02.881Z,16.44
2018-09-06T02:16:12.587Z,16.46
2018-09-06T02:17:22.549Z,16.37
2018-09-06T02:18:32.505Z,16.43
2018-09-06T02:19:42.469Z,16.37
2018-09-06T02:20:52.420Z,16.44
2018-09-06T02:22:02.383Z,16.4
2018-09-06T02:23:12.339Z,16.43
2018-09-06T02:24:22.351Z,16.46
2018-09-06T02:25:32.551Z,16.41
2018-09-06T02:26:42.255Z,16.41
2018-09-06T02:27:52.207Z,16.47
2018-09-06T02:29:01.916Z,16.39
2018-09-06T02:30:11.613Z,16.5
2018-09-06T02:31:21.568Z,16.39
2018-09-06T02:32:31.542Z,16.41
2018-09-06T02:33:41.257Z,16.44
2018-09-06T02:34:51.232Z,16.43
2018-09-06T02:36:01.194Z,16.47
2018-09-06T02:37:10.912Z,16.4
2018-09-06T02:38:20.619Z,16.41
2018-09-06T02:39:30.576Z,16.44
2018-09-06T02:40:40.525Z,16.41
2018-09-06T02:41:50.493Z,16.43
2018-09-06T02:43:00.193Z,16.4
2018-09-06T02:44:10.192Z,16.44
2018-09-06T02:45:19.896Z,16.44
2018-09-06T02:46:29.848Z,16.39
2018-09-06T02:47:39.809Z,16.43
2018-09-06T02:48:49.002Z,16.43
2018-09-06T02:49:58.723Z,16.32
2018-09-06T02:51:08.167Z,16.49
2018-09-06T02:52:17.874Z,16.37
2018-09-06T02:53:27.592Z,16.5
2018-09-06T02:54:37.556Z,16.46
2018-09-06T02:55:47.271Z,16.41
2018-09-06T02:56:57.214Z,16.43
2018-09-06T02:58:06.921Z,16.41
2018-09-06T02:59:17.084Z,16.44
2018-09-06T03:00:27.048Z,16.43
2018-09-06T03:01:37.014Z,16.46
2018-09-06T03:02:46.455Z,16.34
2018-09-06T03:03:56.419Z,16.4
2018-09-06T03:05:06.382Z,16.41
2018-09-06T03:06:16.347Z,16.4
2018-09-06T03:07:26.304Z,16.44
2018-09-06T03:08:36.249Z,16.43
2018-09-06T03:09:46.218Z,16.37
2018-09-06T03:10:56.196Z,16.44
2018-09-06T03:12:06.202Z,16.49
2018-09-06T03:13:15.922Z,16.46
2018-09-06T03:14:25.641Z,16.44
2018-09-06T03:15:35.949Z,16.34
2018-09-06T03:16:45.661Z,16.37
2018-09-06T03:17:55.378Z,16.4
2018-09-06T03:19:05.341Z,16.4
2018-09-06T03:20:15.303Z,16.39
2018-09-06T03:21:25.001Z,16.4
2018-09-06T03:22:34.967Z,16.36
2018-09-06T03:23:44.672Z,16.37
2018-09-06T03:24:54.637Z,16.32
2018-09-06T03:26:04.588Z,16.36
2018-09-06T03:27:14.512Z,16.37
2018-09-06T03:28:24.471Z,16.29
2018-09-06T03:29:34.170Z,16.4
2018-09-06T03:30:44.136Z,16.36
2018-09-06T03:31:53.869Z,16.36
2018-09-06T03:33:03.575Z,16.32
2018-09-06T03:34:13.542Z,16.36
2018-09-06T03:35:23.510Z,16.36
2018-09-06T03:36:33.467Z,16.39
2018-09-06T03:37:43.419Z,16.34
2018-09-06T03:38:53.371Z,16.39
2018-09-06T03:40:03.335Z,16.29
2018-09-06T03:41:12.773Z,16.31
2018-09-06T03:42:22.727Z,16.34
2018-09-06T03:43:32.689Z,16.36
2018-09-06T03:44:42.135Z,16.36
2018-09-06T03:45:52.101Z,16.34
2018-09-06T03:47:02.081Z,16.39
2018-09-06T03:48:12.046Z,16.31
2018-09-06T03:49:22.013Z,16.36
2018-09-06T03:50:31.966Z,16.32
2018-09-06T03:51:41.676Z,16.36
2018-09-06T03:52:51.634Z,16.34
2018-09-06T03:54:01.348Z,16.29
2018-09-06T03:55:11.323Z,16.28
2018-09-06T03:56:21.297Z,16.28
2018-09-06T03:57:30.992Z,16.25
2018-09-06T03:58:40.965Z,16.32
2018-09-06T03:59:50.923Z,16.24
2018-09-06T04:01:00.639Z,16.24
2018-09-06T04:02:10.376Z,16.28
2018-09-06T04:03:20.334Z,16.22
2018-09-06T04:04:30.286Z,16.22
2018-09-06T04:05:40.272Z,16.24
2018-09-06T04:06:50.230Z,16.06
2018-09-06T04:08:00.197Z,16.13
2018-09-06T04:09:10.170Z,16.12
2018-09-06T04:10:19.876Z,16.21
2018-09-06T04:11:29.853Z,16.12
2018-09-06T04:12:39.558Z,16.18
2018-09-06T04:13:49.282Z,16.13
2018-09-06T04:14:59.236Z,16.13
2018-09-06T04:16:09.201Z,16.09
2018-09-06T04:17:19.182Z,16.08
2018-09-06T04:18:28.710Z,16.09
2018-09-06T04:19:38.710Z,16.08
2018-09-06T04:20:48.429Z,16.12
2018-09-06T04:21:58.409Z,16.12
2018-09-06T04:23:08.113Z,16.05
2018-09-06T04:24:17.959Z,16.02
2018-09-06T04:25:27.858Z,16.03
2018-09-06T04:26:37.572Z,15.99
2018-09-06T04:27:47.562Z,16.02
2018-09-06T04:28:57.526Z,16.05
2018-09-06T04:30:07.493Z,16.05
2018-09-06T04:31:17.667Z,16
2018-09-06T04:32:27.647Z,15.99
2018-09-06T04:33:37.610Z,16.06
2018-09-06T04:34:47.574Z,16.02
2018-09-06T04:35:57.646Z,16.06
2018-09-06T04:37:07.477Z,15.99
2018-09-06T04:38:17.427Z,16.02
2018-09-06T04:39:27.393Z,16
2018-09-06T04:40:37.359Z,15.96
2018-09-06T04:41:47.067Z,15.94
2018-09-06T04:42:57.028Z,15.96
2018-09-06T04:44:07.016Z,15.96
2018-09-06T04:45:16.986Z,16.02
2018-09-06T04:46:26.959Z,15.99
2018-09-06T04:47:36.683Z,16.02
2018-09-06T04:48:46.646Z,16
2018-09-06T04:49:56.636Z,16.06
2018-09-06T04:51:06.407Z,15.99
2018-09-06T04:52:16.374Z,15.99
2018-09-06T04:53:26.086Z,16.06
2018-09-06T04:54:36.046Z,15.85
2018-09-06T04:55:45.768Z,15.98
2018-09-06T04:56:55.747Z,15.96
2018-09-06T04:58:05.719Z,15.92
2018-09-06T04:59:15.709Z,16
2018-09-06T05:00:25.693Z,16.02
2018-09-06T05:01:35.145Z,16.03
2018-09-06T05:02:45.114Z,16.05
2018-09-06T05:03:54.865Z,15.99
2018-09-06T05:05:04.855Z,15.99
2018-09-06T05:06:14.812Z,16.09
2018-09-06T05:07:24.015Z,15.98
2018-09-06T05:08:33.975Z,16.03
2018-09-06T05:09:43.939Z,15.98
2018-09-06T05:10:53.640Z,16.05
2018-09-06T05:12:03.595Z,15.98
2018-09-06T05:13:13.313Z,16.05
2018-09-06T05:14:23.282Z,16.02
2018-09-06T05:15:33.006Z,16
2018-09-06T05:16:42.967Z,16
2018-09-06T05:17:52.927Z,16.02
2018-09-06T05:19:02.902Z,16.12
2018-09-06T05:20:12.888Z,16.25
2018-09-06T05:21:22.604Z,16.03
2018-09-06T05:22:32.574Z,16.21
2018-09-06T05:23:42.587Z,16.17
2018-09-06T05:24:52.569Z,16.24
2018-09-06T05:26:02.527Z,16.24
2018-09-06T05:27:12.511Z,16.25
2018-09-06T05:28:22.469Z,16.34
2018-09-06T05:29:32.178Z,16.34
2018-09-06T05:30:42.305Z,16.36
2018-09-06T05:31:52.402Z,16.37
2018-09-06T05:33:02.375Z,16.46
2018-09-06T05:34:12.085Z,16.4
2018-09-06T05:35:22.127Z,16.43
2018-09-06T05:36:32.123Z,16.4
2018-09-06T05:37:41.699Z,16.55
2018-09-06T05:38:51.635Z,16.51
2018-09-06T05:40:01.082Z,16.61
2018-09-06T05:41:10.798Z,16.66
2018-09-06T05:42:20.524Z,16.72
2018-09-06T05:43:30.490Z,16.68
2018-09-06T05:44:40.208Z,16.79
2018-09-06T05:45:49.912Z,16.8
2018-09-06T05:46:59.617Z,16.84
2018-09-06T05:48:09.336Z,16.98
2018-09-06T05:49:19.328Z,16.97
2018-09-06T05:50:29.292Z,17.05
2018-09-06T05:51:38.505Z,17.01
2018-09-06T05:52:47.957Z,17.02
2018-09-06T05:53:57.916Z,17.14
2018-09-06T05:55:07.632Z,17.1
2018-09-06T05:56:17.586Z,17.07
2018-09-06T05:57:27.562Z,17.1
2018-09-06T05:58:37.524Z,17.14
2018-09-06T05:59:47.403Z,17.12
2018-09-06T06:00:57.200Z,17.14
2018-09-06T06:02:06.900Z,17.16
2018-09-06T06:03:16.855Z,17.09
2018-09-06T06:04:26.843Z,17.2
2018-09-06T06:05:36.551Z,17.16
2018-09-06T06:06:46.498Z,17.19
2018-09-06T06:07:56.211Z,17.2
2018-09-06T06:09:06.191Z,17.23
2018-09-06T06:10:16.157Z,17.22
2018-09-06T06:11:26.140Z,17.16
2018-09-06T06:12:36.102Z,17.22
2018-09-06T06:13:45.817Z,17.2
2018-09-06T06:14:55.767Z,17.16
2018-09-06T06:16:05.979Z,17.19
2018-09-06T06:17:15.452Z,17.24
2018-09-06T06:18:25.430Z,17.17
2018-09-06T06:19:35.394Z,17.24
2018-09-06T06:20:45.355Z,17.27
2018-09-06T06:21:55.331Z,17.28
2018-09-06T06:23:05.322Z,17.2
2018-09-06T06:24:15.307Z,17.23
2018-09-06T06:25:25.291Z,17.22
2018-09-06T06:26:35.251Z,17.24
2018-09-06T06:27:44.968Z,17.22
2018-09-06T06:28:54.983Z,17.3
2018-09-06T06:30:04.694Z,17.24
2018-09-06T06:31:14.665Z,17.3
2018-09-06T06:32:24.745Z,17.31
2018-09-06T06:33:34.781Z,17.3
2018-09-06T06:34:44.755Z,17.3
2018-09-06T06:35:54.718Z,17.37
2018-09-06T06:37:04.696Z,17.32
2018-09-06T06:38:14.432Z,17.3
2018-09-06T06:39:24.423Z,17.37
2018-09-06T06:40:34.391Z,17.38
2018-09-06T06:41:44.360Z,17.44
2018-09-06T06:42:54.344Z,17.49
2018-09-06T06:44:04.331Z,17.6
2018-09-06T06:45:14.307Z,17.53
2018-09-06T06:46:24.272Z,17.68
2018-09-06T06:47:34.238Z,17.65
2018-09-06T06:48:43.696Z,17.59
2018-09-06T06:49:53.689Z,17.63
2018-09-06T06:51:03.685Z,17.63
2018-09-06T06:52:12.884Z,17.72
2018-09-06T06:53:22.868Z,17.65
2018-09-06T06:54:32.848Z,17.63
2018-09-06T06:55:42.896Z,17.76
2018-09-06T06:56:52.345Z,17.76
2018-09-06T06:58:02.312Z,17.75
2018-09-06T06:59:12.032Z,17.78
2018-09-06T07:00:22.030Z,17.86
2018-09-06T07:01:31.759Z,17.86
2018-09-06T07:02:41.479Z,17.91
2018-09-06T07:03:51.532Z,17.9
2018-09-06T07:05:01.560Z,18.03
2018-09-06T07:06:11.553Z,18
2018-09-06T07:07:21.739Z,17.95
2018-09-06T07:08:31.457Z,18.06
2018-09-06T07:09:41.451Z,18
2018-09-06T07:10:51.450Z,18.02
2018-09-06T07:12:01.426Z,18.16
2018-09-06T07:13:11.397Z,18.09
2018-09-06T07:14:21.384Z,18.27
2018-09-06T07:15:31.376Z,18.26
2018-09-06T07:16:41.088Z,18.36
2018-09-06T07:17:51.088Z,18.3
2018-09-06T07:19:01.067Z,18.45
2018-09-06T07:20:11.042Z,18.49
2018-09-06T07:21:21.030Z,18.53
2018-09-06T07:22:31.006Z,18.67
2018-09-06T07:23:40.966Z,18.76
2018-09-06T07:24:50.937Z,18.66
2018-09-06T07:26:00.924Z,18.73
2018-09-06T07:27:10.624Z,18.89
2018-09-06T07:28:20.340Z,18.89
2018-09-06T07:29:30.324Z,18.83
2018-09-06T07:30:40.823Z,18.96
2018-09-06T07:31:50.828Z,18.89
2018-09-06T07:33:00.802Z,18.91
2018-09-06T07:34:10.778Z,19
2018-09-06T07:35:20.955Z,19.05
2018-09-06T07:36:30.913Z,19.05
2018-09-06T07:37:40.646Z,19.15
2018-09-06T07:38:50.626Z,19.17
2018-09-06T07:40:00.598Z,19.29
2018-09-06T07:41:10.716Z,19.24
2018-09-06T07:42:20.566Z,19.3
2018-09-06T07:43:30.009Z,19.35
2018-09-06T07:44:39.985Z,19.48
2018-09-06T07:45:49.689Z,19.39
2018-09-06T07:46:59.317Z,19.44
2018-09-06T07:48:09.355Z,19.6
2018-09-06T07:49:19.078Z,19.66
2018-09-06T07:50:29.048Z,19.67
2018-09-06T07:51:38.986Z,19.75
2018-09-06T07:52:49.021Z,19.77
2018-09-06T07:53:59.012Z,19.84
2018-09-06T07:55:09.004Z,19.87
2018-09-06T07:56:18.737Z,19.87
2018-09-06T07:57:28.806Z,19.85
2018-09-06T07:58:39.045Z,19.96
2018-09-06T07:59:49.122Z,19.92
2018-09-06T08:00:58.852Z,19.99
2018-09-06T08:02:08.870Z,20
2018-09-06T08:03:18.944Z,20.11
2018-09-06T08:04:29.161Z,20.18
2018-09-06T08:05:39.167Z,20.21
2018-09-06T08:06:49.167Z,20.44
2018-09-06T08:07:59.201Z,20.55
2018-09-06T08:09:09.205Z,20.55
2018-09-06T08:10:19.620Z,20.63
2018-09-06T08:11:29.354Z,20.73
2018-09-06T08:12:39.064Z,20.78
2018-09-06T08:13:48.783Z,20.83
2018-09-06T08:14:58.807Z,20.86
2018-09-06T08:16:08.797Z,20.98
2018-09-06T08:17:18.782Z,21.11
2018-09-06T08:18:28.757Z,21.15
2018-09-06T08:19:38.797Z,21.26
2018-09-06T08:20:48.527Z,21.29
2018-09-06T08:21:58.538Z,21.48
2018-09-06T08:23:08.263Z,21.74
2018-09-06T08:24:18.483Z,22.14
2018-09-06T08:25:28.291Z,22.4
2018-09-06T08:26:38.275Z,22.58
2018-09-06T08:27:47.994Z,22.73
2018-09-06T08:28:57.739Z,22.74
2018-09-06T08:30:07.499Z,22.93
2018-09-06T08:31:17.463Z,23.14
2018-09-06T08:32:27.317Z,23.33
2018-09-06T08:33:37.039Z,23.52
2018-09-06T08:34:47.041Z,23.76
2018-09-06T08:35:57.024Z,23.86
2018-09-06T08:37:07.024Z,23.88
2018-09-06T08:38:16.739Z,23.94
2018-09-06T08:39:26.722Z,24.14
2018-09-06T08:40:36.698Z,24.25
2018-09-06T08:41:46.692Z,24.46
2018-09-06T08:42:56.179Z,24.61
2018-09-06T08:44:06.172Z,24.78
2018-09-06T08:45:16.264Z,24.89
2018-09-06T08:46:26.391Z,25.03
2018-09-06T08:47:36.516Z,25
2018-09-06T08:48:46.116Z,24.99
2018-09-06T08:49:56.127Z,25.04
2018-09-06T08:51:06.185Z,25.15
2018-09-06T08:52:16.187Z,25.03
2018-09-06T08:53:26.320Z,25.09
2018-09-06T08:54:36.047Z,25.16
2018-09-06T08:55:46.042Z,24.88
2018-09-06T08:56:55.781Z,25
2018-09-06T08:58:05.777Z,25.31
2018-09-06T08:59:15.523Z,25.48
2018-09-06T09:00:25.526Z,25.68
2018-09-06T09:01:35.547Z,25.4
2018-09-06T09:02:45.872Z,25.41
2018-09-06T09:03:55.931Z,25.54
2018-09-06T09:05:05.710Z,25.74
2018-09-06T09:06:15.449Z,25.78
2018-09-06T09:07:25.561Z,25.81
2018-09-06T09:08:35.885Z,25.92
2018-09-06T09:09:45.880Z,26.13
2018-09-06T09:10:55.629Z,26.41
2018-09-06T09:12:05.359Z,26.42
2018-09-06T09:13:15.676Z,26.45
2018-09-06T09:14:25.936Z,26.29
2018-09-06T09:15:35.656Z,26.01
2018-09-06T09:16:45.398Z,26.01
2018-09-06T09:17:55.373Z,26.3
2018-09-06T09:19:05.396Z,26.48
2018-09-06T09:20:15.374Z,26.81
2018-09-06T09:21:25.177Z,27.07
2018-09-06T09:22:35.255Z,27.29
2018-09-06T09:23:45.239Z,27.44
2018-09-06T09:24:54.952Z,27.4
2018-09-06T09:26:04.671Z,27.43
2018-09-06T09:27:14.648Z,27.48
2018-09-06T09:28:24.632Z,27.58
2018-09-06T09:29:34.679Z,27.47
2018-09-06T09:30:44.878Z,27.38
2018-09-06T09:31:54.932Z,27.41
2018-09-06T09:33:04.676Z,27.47
2018-09-06T09:34:14.142Z,27.45
2018-09-06T09:35:23.856Z,27.44
2018-09-06T09:36:33.991Z,27.29
2018-09-06T09:37:43.460Z,27.58
2018-09-06T09:38:53.463Z,27.81
2018-09-06T09:40:03.188Z,27.63
2018-09-06T09:41:13.183Z,27.4
2018-09-06T09:42:22.912Z,27.38
2018-09-06T09:43:32.908Z,27.35
2018-09-06T09:44:42.885Z,27.05
2018-09-06T09:45:52.880Z,26.79
2018-09-06T09:48:11.429Z,26.97
2018-09-06T09:49:20.944Z,27.04
2018-09-06T09:51:39.867Z,27.72
2018-09-06T09:52:49.906Z,27.82
2018-09-06T09:53:59.902Z,27.66
2018-09-06T09:55:09.658Z,27.16
2018-09-06T09:56:19.395Z,26.97
2018-09-06T09:57:29.171Z,27.37
2018-09-06T09:58:39.151Z,27.67
2018-09-06T09:59:49.135Z,27.48
2018-09-06T10:00:59.137Z,27.38
2018-09-06T10:02:08.879Z,27.11
2018-09-06T10:03:18.885Z,27.01
2018-09-06T10:04:28.870Z,26.98
2018-09-06T10:05:38.863Z,27.15
2018-09-06T10:06:48.835Z,27.34
2018-09-06T10:07:58.837Z,27.4
2018-09-06T10:09:08.587Z,27.25
2018-09-06T10:10:18.331Z,27.2
2018-09-06T10:11:28.339Z,27.13
2018-09-06T10:12:38.110Z,27.08
2018-09-06T10:13:48.104Z,26.92
2018-09-06T10:14:58.483Z,26.92
2018-09-06T10:16:09.240Z,26.97
2018-09-06T10:17:19.457Z,27.08
2018-09-06T10:18:29.283Z,27.23
2018-09-06T10:19:38.983Z,27.44
2018-09-06T10:20:49.005Z,27.85
2018-09-06T10:21:58.724Z,28.23
2018-09-06T10:23:08.199Z,28.55
2018-09-06T10:24:18.178Z,28.74
2018-09-06T10:25:27.939Z,29.12
2018-09-06T10:26:37.933Z,29.47
2018-09-06T10:27:47.423Z,29.53
2018-09-06T10:28:57.415Z,29.64
2018-09-06T10:30:07.401Z,29.81
2018-09-06T10:31:17.138Z,29.67
2018-09-06T10:32:27.143Z,29.52
2018-09-06T10:33:37.140Z,29.61
2018-09-06T10:34:47.174Z,29.69
2018-09-06T10:35:56.959Z,29.13
2018-09-06T10:37:07.021Z,28.92
2018-09-06T10:38:17.118Z,29.1
2018-09-06T10:39:27.432Z,29.09
2018-09-06T10:40:37.868Z,29.1
2018-09-06T10:41:48.235Z,29.13
2018-09-06T10:42:57.965Z,29.39
2018-09-06T10:44:07.709Z,29.28
2018-09-06T10:45:17.444Z,29.15
2018-09-06T10:46:27.181Z,29.03
2018-09-06T10:47:37.393Z,28.74
2018-09-06T10:48:47.176Z,28.41
2018-09-06T10:49:57.210Z,28.67
2018-09-06T10:51:06.733Z,29.06
2018-09-06T10:52:16.445Z,29.15
2018-09-06T10:53:26.184Z,29.15
2018-09-06T10:54:36.173Z,29.47
2018-09-06T10:55:45.892Z,29.8
2018-09-06T10:56:55.378Z,29.95
2018-09-06T10:58:05.095Z,29.89
2018-09-06T10:59:14.832Z,30.1
2018-09-06T11:00:24.832Z,30.11
2018-09-06T11:01:34.861Z,29.79
2018-09-06T11:02:44.591Z,29.74
2018-09-06T11:03:54.582Z,29.86
2018-09-06T11:05:04.781Z,29.96
2018-09-06T11:06:14.773Z,30.11
2018-09-06T11:07:24.754Z,30.18
2018-09-06T11:08:34.230Z,29.9
2018-09-06T11:09:43.977Z,29.84
2018-09-06T11:10:53.786Z,29.24
2018-09-06T11:12:03.793Z,29.12
2018-09-06T11:13:13.779Z,29.09
2018-09-06T11:14:23.763Z,29.28
2018-09-06T11:15:33.490Z,29.65
2018-09-06T11:16:43.522Z,30.02
2018-09-06T11:17:53.314Z,30.05
2018-09-06T11:19:03.484Z,29.84
2018-09-06T11:20:13.454Z,29.79
2018-09-06T11:21:23.316Z,29.43
2018-09-06T11:22:34.760Z,29.57
2018-09-06T11:23:45.331Z,29.49
2018-09-06T11:24:55.339Z,29.73
2018-09-06T11:26:05.053Z,29.55
2018-09-06T11:27:15.040Z,29.57
2018-09-06T11:28:25.032Z,29.55
2018-09-06T11:29:35.024Z,29.68
2018-09-06T11:30:44.772Z,29.83
2018-09-06T11:31:54.749Z,29.61
2018-09-06T11:33:04.722Z,29.57
2018-09-06T11:34:14.874Z,30.16
2018-09-06T11:35:24.859Z,30.52
2018-09-06T11:36:34.837Z,30.92
2018-09-06T11:37:44.835Z,31.1
2018-09-06T11:38:54.806Z,30.81
2018-09-06T11:40:05.077Z,30.21
2018-09-06T11:41:15.485Z,30.33
2018-09-06T11:42:25.528Z,30.54
2018-09-06T11:43:35.560Z,30.48
2018-09-06T11:44:45.283Z,30.54
2018-09-06T11:45:54.998Z,30.69
2018-09-06T11:47:05.158Z,30.99
2018-09-06T11:48:15.415Z,31.14
2018-09-06T11:49:25.434Z,31.51
2018-09-06T11:50:35.450Z,31.89
2018-09-06T11:51:45.190Z,32.44
2018-09-06T11:52:55.189Z,32.01
2018-09-06T11:54:05.166Z,31.77
2018-09-06T11:55:15.170Z,31
2018-09-06T11:56:24.910Z,30.16
2018-09-06T11:57:34.919Z,29.8
2018-09-06T11:58:44.914Z,29.71
2018-09-06T11:59:54.907Z,29.9
2018-09-06T12:01:04.626Z,30.35
2018-09-06T12:02:14.866Z,30.38
2018-09-06T12:03:25.130Z,30.38
2018-09-06T12:04:34.856Z,30.74
2018-09-06T12:05:44.833Z,30.62
2018-09-06T12:06:54.565Z,30.81
2018-09-06T12:08:04.543Z,31.13
2018-09-06T12:09:14.531Z,31.77
2018-09-06T12:10:24.262Z,31.87
2018-09-06T12:11:34.236Z,31.52
2018-09-06T12:12:44.228Z,31.42
2018-09-06T12:13:54.312Z,31.77
2018-09-06T12:15:03.905Z,31.97
2018-09-06T12:16:13.881Z,32.27
2018-09-06T12:17:23.884Z,32.26
2018-09-06T12:18:33.869Z,31.95
2018-09-06T12:19:43.881Z,31.73
2018-09-06T12:20:53.919Z,31.51
2018-09-06T12:22:03.715Z,31.3
2018-09-06T12:23:13.638Z,31.3
2018-09-06T12:24:23.665Z,31.08
2018-09-06T12:25:33.445Z,31.14
2018-09-06T12:26:43.361Z,31.2
2018-09-06T12:27:53.082Z,31.11
2018-09-06T12:29:03.073Z,30.52
2018-09-06T12:30:13.069Z,30.46
2018-09-06T12:31:23.061Z,30.23
2018-09-06T12:32:33.371Z,30.14
2018-09-06T12:33:43.821Z,30.14
2018-09-06T12:34:54.083Z,29.9
2018-09-06T12:36:04.061Z,29.73
2018-09-06T12:37:14.096Z,29.49
2018-09-06T12:38:24.319Z,29.31
2018-09-06T12:39:34.319Z,29.13
2018-09-06T12:40:44.307Z,29.03
2018-09-06T12:41:54.330Z,28.9
2018-09-06T12:43:04.307Z,28.9
2018-09-06T12:44:14.032Z,29.07
2018-09-06T12:45:24.006Z,29.07
2018-09-06T12:46:34.007Z,28.89
2018-09-06T12:47:44.001Z,28.83
2018-09-06T12:48:53.761Z,29.24
2018-09-06T12:50:03.543Z,29.79
2018-09-06T12:51:13.593Z,30.06
2018-09-06T12:52:23.344Z,29.96
2018-09-06T12:53:33.323Z,30.05
2018-09-06T12:54:43.297Z,29.96
2018-09-06T12:55:53.023Z,29.64
2018-09-06T12:57:03.017Z,29.67
2018-09-06T12:58:12.739Z,29.55
2018-09-06T12:59:22.715Z,29.62
2018-09-06T13:00:32.441Z,29.43
2018-09-06T13:01:42.430Z,29.55
2018-09-06T13:02:52.403Z,29.5
2018-09-06T13:04:02.398Z,29.47
2018-09-06T13:05:12.130Z,29.58
2018-09-06T13:06:22.113Z,29.62
2018-09-06T13:07:32.077Z,29.81
2018-09-06T13:08:41.801Z,30.24
2018-09-06T13:09:51.780Z,30.48
2018-09-06T13:11:01.499Z,30.74
2018-09-06T13:12:11.472Z,30.98
2018-09-06T13:13:21.453Z,30.85
2018-09-06T13:14:31.181Z,31.07
2018-09-06T13:15:41.162Z,30.65
2018-09-06T13:16:51.163Z,30.38
2018-09-06T13:18:01.200Z,30.08
2018-09-06T13:19:11.177Z,30.05
2018-09-06T13:20:21.164Z,30.13
2018-09-06T13:21:30.897Z,30.27
2018-09-06T13:22:40.896Z,30.69
2018-09-06T13:23:50.869Z,30.58
2018-09-06T13:25:00.851Z,30.18
2018-09-06T13:26:10.859Z,30.39
2018-09-06T13:27:21.003Z,30.4
2018-09-06T13:28:30.931Z,30.24
2018-09-06T13:29:40.910Z,30.24
2018-09-06T13:30:50.888Z,29.86
2018-09-06T13:32:00.852Z,29.35
2018-09-06T13:33:10.304Z,29.3
2018-09-06T13:34:20.018Z,29.18
2018-09-06T13:35:30.141Z,29.21
2018-09-06T13:36:40.294Z,29.22
2018-09-06T13:37:50.015Z,29.25
2018-09-06T13:38:59.722Z,29.15
2018-09-06T13:40:09.721Z,29.2
2018-09-06T13:41:19.704Z,29.07
2018-09-06T13:42:29.445Z,29.3
2018-09-06T13:43:39.705Z,29.32
2018-09-06T13:44:49.415Z,29.32
2018-09-06T13:45:59.138Z,29.31
2018-09-06T13:47:09.129Z,29.24
2018-09-06T13:48:19.121Z,29.28
2018-09-06T13:49:28.849Z,29.27
2018-09-06T13:50:38.824Z,28.93
2018-09-06T13:51:48.818Z,28.97
2018-09-06T13:52:58.545Z,29.18
2018-09-06T13:54:08.293Z,29.2
2018-09-06T13:55:18.270Z,29.28
2018-09-06T13:56:27.998Z,29.22
2018-09-06T13:57:37.993Z,29.28
2018-09-06T13:58:47.975Z,29.47
2018-09-06T13:59:57.717Z,29.43
2018-09-06T14:01:07.716Z,29.49
2018-09-06T14:02:17.700Z,29.2
2018-09-06T14:03:27.424Z,29.07
2018-09-06T14:04:37.406Z,28.74
2018-09-06T14:05:47.715Z,28.46
2018-09-06T14:06:57.891Z,28.22
2018-09-06T14:08:07.610Z,28.27
2018-09-06T14:09:17.323Z,28.2
2018-09-06T14:10:27.308Z,28.34
2018-09-06T14:11:37.299Z,28.35
2018-09-06T14:12:47.293Z,28.34
2018-09-06T14:13:57.282Z,28.33
2018-09-06T14:15:07.317Z,28.49
2018-09-06T14:16:17.295Z,28.78
2018-09-06T14:17:27.322Z,29.12
2018-09-06T14:18:37.318Z,29.31
2018-09-06T14:19:47.319Z,29.42
2018-09-06T14:20:56.795Z,29.39
2018-09-06T14:22:06.815Z,29.4
2018-09-06T14:23:17.045Z,29.35
2018-09-06T14:24:27.028Z,29.34
2018-09-06T14:25:37.015Z,29.3
2018-09-06T14:26:47.023Z,29.47
2018-09-06T14:27:56.760Z,29.61
2018-09-06T14:29:06.768Z,29.49
2018-09-06T14:30:16.753Z,29.73
2018-09-06T14:31:26.500Z,29.98
2018-09-06T14:32:36.477Z,30.24
2018-09-06T14:33:46.190Z,30.83
2018-09-06T14:34:55.670Z,30.78
2018-09-06T14:36:05.389Z,30.77
2018-09-06T14:37:15.122Z,30.73
2018-09-06T14:38:25.124Z,30.96
2018-09-06T14:39:35.191Z,31.2
2018-09-06T14:40:45.201Z,31.36
2018-09-06T14:41:55.190Z,31.63
2018-09-06T14:43:05.236Z,31.85
2018-09-06T14:44:15.435Z,32.01
2018-09-06T14:45:25.424Z,32
2018-09-06T14:46:35.408Z,32.2
2018-09-06T14:47:45.394Z,32.49
2018-09-06T14:48:54.873Z,32.75
2018-09-06T14:50:04.887Z,32.93
2018-09-06T14:51:14.629Z,33.28
2018-09-06T14:52:24.609Z,33.47
2018-09-06T14:53:34.815Z,33.58
2018-09-06T14:54:44.815Z,33.47
2018-09-06T14:55:54.836Z,33.12
2018-09-06T14:57:05.094Z,32.6
2018-09-06T14:58:14.830Z,32.19
2018-09-06T14:59:24.584Z,31.57
2018-09-06T15:00:34.565Z,30.99
2018-09-06T15:01:44.547Z,30.4
2018-09-06T15:02:54.275Z,29.89
2018-09-06T15:04:04.001Z,29.5
2018-09-06T15:05:14.004Z,29.4
2018-09-06T15:06:23.976Z,29.31
2018-09-06T15:07:33.946Z,28.93